x

Lake Simcoe (45151) Wave Buoy

3:00pm - Sun 5th Jul 2015 All times are CDT. -5 hours from GMT.

  • Sig Wave height 0.3ft
  • Peak Period 2s
  • Wind
    4mph
  • Sea Temp 71°f
  • Air Temp 73°f
  • Sea Pressure 1019.4mb
  • Lake Simcoe
  • Lake Simcoe

More Historic Weather Station data

Upgrade to MSW Pro to gain access to the past 30 days of data for over 8000 Wavebouys and Weather Stations around the globe.

Join Pro

Comparision Forecast

View Surf forecast
   
Sun 07/05 3:00pm 0.3ft 2s 4
mph
1019.4mb 71f 73f
2:00pm 0.3ft 2s 4 7 mph 1019.8mb 71f 73f
1:00pm 0.3ft 2s 4 7 mph 1020.1mb 70f 72f
12:00pm 0.3ft 2s 4
mph
1020.5mb 70f 70f
11:00am 0.3ft 2s 4
mph
1020.6mb 69f 68f
10:00am 0.3ft 2s 2 4 mph 1020.6mb 68f 66f
9:00am 0.3ft 2s 2 4 mph 1020.2mb 67f 65f
8:00am  -  3s 4 7 mph 1020.2mb 67f 64f
7:00am 0.3ft 2s 2 4 mph 1019.8mb 67f 64f
6:00am 0.3ft 2s 7
mph
1019.6mb 67f 63f
5:00am  -  3s 7 9 mph 1018.9mb 67f 64f
4:00am  -  2s 2
mph
1018.3mb 67f 64f
3:00am  -  2s 4
mph
1018.2mb 67f 64f
2:00am  -  2s 7
mph
1018mb 67f 64f
1:00am  -  3s 2 4 mph 1017.8mb 67f 64f
12:00am  -  3s 4 7 mph 1017.4mb 68f 64f
Sat 07/04 11:00pm 0.3ft 2s 4 7 mph 1016.7mb 68f 65f
10:00pm 0.3ft 3s 7 9 mph 1016.3mb 68f 66f
9:00pm 0.3ft 2s 4 7 mph 1016mb 68f 68f
8:00pm 0.3ft 2s 7 9 mph 1015mb 68f 69f
7:00pm 0.3ft 2s 7 9 mph 1014.3mb 68f 71f
6:00pm 0.3ft 2s 11 13 mph 1014.3mb 69f 73f
5:00pm 0.3ft 2s 4
mph
1014.4mb 70f 72f
4:00pm 0.3ft 2s 2 4 mph 1014.3mb 69f 71f
3:00pm 0.3ft 3s 4 7 mph 1014.3mb 69f 70f
2:00pm 0.3ft 2s 7
mph
1014.4mb 69f 69f
1:00pm 0.3ft 2s 4 7 mph 1014.5mb 68f 68f
12:00pm 0.3ft 2s 4 7 mph 1014.4mb 68f 67f
11:00am 0.3ft 2s 4 7 mph 1014.7mb 67f 66f
9:00am  -  2s  -  2 mph 1014.7mb 66f 65f
8:00am  -  2s 4
mph
1014.4mb 66f 64f
7:00am  -  2s 4 7 mph 1014.1mb 66f 62f
6:00am  -  2s 7
mph
1014mb 65f 62f
5:00am  -  3s 2 4 mph 1013.6mb 65f 62f
4:00am  -  3s 4
mph
1013.6mb 65f 62f
3:00am 0.3ft 2s 4 7 mph 1013.6mb 65f 64f
2:00am 0.3ft 2s 4 7 mph 1013.7mb 65f 64f
1:00am 0.7ft 2s 7
mph
1013.9mb 65f 64f
12:00am 0.7ft 2s 9
mph
1014.1mb 66f 64f
Fri 07/03 11:00pm 0.3ft 3s 9 11 mph 1014mb 66f 65f
10:00pm 0.3ft 3s 7 9 mph 1013.9mb 66f 66f
9:00pm 0.3ft 2s 7
mph
1014.1mb 66f 67f
8:00pm 0.3ft 3s 9 11 mph 1013.6mb 67f 67f
7:00pm 0.3ft 2s 4
mph
1013.8mb 68f 69f
6:00pm 0.3ft 2s 7
mph
1013.8mb 68f 70f
5:00pm 0.3ft 2s 4
mph
1014mb 69f 71f
4:00pm 0.3ft 2s 4
mph
1014.5mb 71f 71f
3:00pm 0.3ft 3s  -  mph 1015.1mb 70f 72f
2:00pm 0.3ft 2s 2 4 mph 1015.6mb 69f 69f
1:00pm 0.3ft 2s 2
mph
1016.1mb 69f 68f
12:00pm  -  2s 4
mph
1016.4mb 68f 64f
11:00am  -  2s 4
mph
1016.8mb 67f 63f
10:00am 0.3ft 2s 2 4 mph 1016.7mb 66f 62f
9:00am  -  3s 2
mph
1016.8mb 66f 62f
8:00am  -  2s  -  2 mph 1017.1mb 65f 63f
7:00am  -  2s 2 4 mph 1016.9mb 65f 62f
6:00am  -  3s 4 7 mph 1016.9mb 64f 61f
5:00am 0.3ft 2s 2 7 mph 1016.6mb 65f 60f
4:00am 0.3ft 2s 4 7 mph 1016.1mb 65f 59f
3:00am 0.7ft 2s 11 13 mph 1015.8mb 65f 58f
2:00am 0.7ft 2s 11 13 mph 1015.8mb 65f 58f
1:00am 0.7ft 2s 11 13 mph 1016mb 65f 58f
12:00am 0.7ft 2s 13
mph
1016.4mb 65f 59f
Thu 07/02 11:00pm 1ft 2s 13 18 mph 1016mb 65f 60f
10:00pm 0.3ft 2s 13 18 mph 1015.9mb 65f 61f
9:00pm 0.3ft 2s 7 9 mph 1016mb 65f 62f
8:00pm 0.7ft 2s 9
mph
1015.4mb 65f 64f
7:00pm 0.7ft 2s 11 13 mph 1015.1mb 66f 66f
6:00pm 0.7ft 2s 11 13 mph 1014.8mb 66f 66f
5:00pm 0.7ft 2s 9 11 mph 1014.6mb 66f 67f
4:00pm 0.3ft 2s 11 13 mph 1014.7mb 66f 67f
3:00pm 0.3ft 3s 9 11 mph 1015mb 66f 67f
2:00pm 0.3ft 2s 4 7 mph 1015.3mb 66f 66f
1:00pm 0.3ft 2s 4 9 mph 1015.6mb 65f 65f
12:00pm 0.3ft 2s 9 13 mph 1015.8mb 65f 65f
11:00am 0.7ft 2s 7 9 mph 1015.8mb 65f 64f
10:00am 0.7ft 2s 11 16 mph 1015.8mb 65f 63f
9:00am 1ft 2s 11 16 mph 1015.5mb 65f 62f
7:00am 0.3ft 2s 7 9 mph 1015.3mb 64f 58f
6:00am 0.3ft 2s 9 11 mph 1015.2mb 64f 57f
5:00am 0.7ft 2s 11 13 mph 1014.7mb 64f 57f
4:00am 0.3ft 2s 13 16 mph 1014.4mb 64f 57f
3:00am 0.7ft 2s 11 13 mph 1014.4mb 64f 57f
2:00am 0.7ft 2s 13 16 mph 1014.3mb 65f 58f
12:00am 0.7ft 2s 11 13 mph 1014mb 65f 60f
Wed 07/01 11:00pm 1ft 2s 13 16 mph 1013.4mb 65f 60f
10:00pm 1ft 2s 16 20 mph 1012.8mb 65f 60f